Time;durP1;ratioP1;P1;durP2;ratioP2;P2;SDS_P1;SDS_P2;PMS_P1;PMS_P2;Temp;Humidity;BMP_temperature;BMP_pressure;BME280_temperature;BME280_humidity;BME280_pressure;Samples;Min_cycle;Max_cycle;Signal;HPM_P1;HPM_P2
2023/12/02 00:00:04;;;;;;;24.60;7.90;;;;;;;15.78;53.12;100463.92;106833;1263;24272;-75
2023/12/02 00:02:38;;;;;;;35.20;8.80;;;;;;;15.74;53.14;100465.55;106725;1265;22524;-75
2023/12/02 00:05:06;;;;;;;27.50;9.10;;;;;;;15.72;53.11;100458.66;106659;1258;22545;-75
2023/12/02 00:07:33;;;;;;;21.30;7.70;;;;;;;15.71;53.11;100457.31;106752;1266;22544;-76
2023/12/02 00:10:01;;;;;;;22.40;7.20;;;;;;;15.67;53.04;100452.21;106735;1263;22542;-75
2023/12/02 00:12:28;;;;;;;30.80;7.90;;;;;;;15.67;53.01;100450.84;106728;1262;25296;-75
2023/12/02 00:14:56;;;;;;;38.70;10.20;;;;;;;15.66;52.97;100452.47;106786;1264;25337;-75
2023/12/02 00:17:24;;;;;;;35.80;10.80;;;;;;;15.65;53.00;100451.99;106750;1263;24362;-75
2023/12/02 00:19:52;;;;;;;42.40;13.30;;;;;;;15.64;52.96;100450.81;106506;1267;25417;-75
2023/12/02 00:22:19;;;;;;;49.50;14.50;;;;;;;15.63;53.04;100459.23;106744;1260;22543;-75
2023/12/02 00:24:47;;;;;;;62.90;15.00;;;;;;;15.62;52.98;100463.10;106750;1273;25339;-75
2023/12/02 00:27:17;;;;;;;57.60;15.40;;;;;;;15.61;52.97;100459.70;106787;1262;22803;-75
2023/12/02 00:29:44;;;;;;;43.10;12.90;;;;;;;15.61;52.91;100458.98;106751;1270;22565;-75
2023/12/02 00:32:12;;;;;;;33.00;10.80;;;;;;;15.61;53.11;100462.85;106744;1256;22626;-75
2023/12/02 00:34:53;;;;;;;;;;;;;;;15.60;53.16;100474.76;106927;1266;22509;-75
2023/12/02 00:37:21;;;;;;;38.60;12.30;;;;;;;15.60;53.29;100485.95;106854;1260;22533;-75
2023/12/02 00:39:49;;;;;;;40.00;11.70;;;;;;;15.58;53.27;100492.54;106543;1273;22533;-75
2023/12/02 00:42:16;;;;;;;36.60;11.60;;;;;;;15.55;53.10;100498.45;106757;1261;25244;-75
2023/12/02 00:44:44;;;;;;;34.70;10.20;;;;;;;15.55;52.94;100497.55;106870;1270;22510;-75
2023/12/02 00:47:11;;;;;;;50.80;14.20;;;;;;;15.51;52.76;100490.91;106751;1267;25468;-76
2023/12/02 00:49:39;;;;;;;52.50;13.40;;;;;;;15.50;52.71;100492.55;106844;1262;22532;-75
2023/12/02 00:52:07;;;;;;;50.20;13.40;;;;;;;15.49;52.62;100489.30;106841;1267;22535;-75
2023/12/02 00:54:36;;;;;;;42.60;12.30;;;;;;;15.45;52.63;100484.70;106897;1261;22536;-75
2023/12/02 00:57:04;;;;;;;47.20;13.50;;;;;;;15.42;52.61;100484.15;106934;1259;22542;-75
2023/12/02 00:59:32;;;;;;;46.10;14.10;;;;;;;15.42;52.57;100474.38;106802;1263;22553;-75
2023/12/02 01:01:59;;;;;;;41.00;12.90;;;;;;;15.39;52.65;100476.93;106829;1260;22528;-76
2023/12/02 01:04:27;;;;;;;55.60;14.00;;;;;;;15.37;52.56;100478.45;106815;1269;22523;-75
2023/12/02 01:06:55;;;;;;;54.30;17.10;;;;;;;15.35;52.62;100478.55;106839;1260;22533;-75
2023/12/02 01:09:23;;;;;;;60.30;17.60;;;;;;;15.33;52.70;100475.33;106776;1260;25473;-75
2023/12/02 01:11:50;;;;;;;58.80;16.20;;;;;;;15.31;52.77;100475.58;106888;1263;22541;-75
2023/12/02 01:14:18;;;;;;;48.10;13.20;;;;;;;15.28;52.83;100470.14;106765;1269;22538;-75
2023/12/02 01:16:45;;;;;;;45.50;12.10;;;;;;;15.26;52.77;100465.48;106708;1257;24255;-75
2023/12/02 01:19:13;;;;;;;35.70;11.50;;;;;;;15.25;52.83;100469.23;106826;1272;22536;-75
2023/12/02 01:21:41;;;;;;;43.30;12.30;;;;;;;15.24;53.00;100462.80;106841;1260;25300;-77
2023/12/02 01:24:08;;;;;;;43.40;12.70;;;;;;;15.23;53.25;100461.62;106853;1261;24246;-76
2023/12/02 01:26:36;;;;;;;27.80;9.20;;;;;;;15.24;53.49;100459.64;106897;1268;23028;-77
2023/12/02 01:29:04;;;;;;;19.90;7.80;;;;;;;15.26;53.88;100460.77;106868;1260;22537;-77
2023/12/02 01:31:31;;;;;;;20.50;7.30;;;;;;;15.28;54.08;100457.70;106454;1270;22525;-76
2023/12/02 01:33:59;;;;;;;25.50;8.60;;;;;;;15.30;54.21;100468.78;106828;1269;22530;-77
2023/12/02 01:36:27;;;;;;;23.30;7.90;;;;;;;15.31;54.36;100469.08;106913;1269;22533;-77
2023/12/02 01:38:54;;;;;;;22.90;7.30;;;;;;;15.35;54.48;100469.63;106651;1263;22527;-77
2023/12/02 01:41:23;;;;;;;21.40;7.60;;;;;;;15.38;54.50;100473.52;106867;1262;22514;-77
2023/12/02 01:43:51;;;;;;;31.10;8.60;;;;;;;15.40;54.62;100474.27;106895;1261;22637;-77
2023/12/02 01:46:18;;;;;;;36.90;9.30;;;;;;;15.43;54.74;100474.33;106820;1255;22540;-77
2023/12/02 01:48:46;;;;;;;23.20;7.80;;;;;;;15.46;54.93;100474.73;106820;1269;22537;-77
2023/12/02 01:51:14;;;;;;;21.70;7.80;;;;;;;15.49;55.08;100479.31;106628;1269;22538;-77
2023/12/02 01:53:41;;;;;;;32.70;8.20;;;;;;;15.51;55.22;100469.23;106845;1272;22533;-77
2023/12/02 01:56:09;;;;;;;29.50;8.80;;;;;;;15.54;55.29;100470.16;106782;1265;22524;-77
2023/12/02 01:58:37;;;;;;;35.80;9.90;;;;;;;15.56;55.34;100463.05;106741;1264;22529;-77
2023/12/02 02:01:05;;;;;;;33.30;9.40;;;;;;;15.59;55.37;100470.28;106794;1270;22646;-77
2023/12/02 02:03:33;;;;;;;25.30;8.20;;;;;;;15.60;55.40;100474.41;106849;1257;22543;-77
2023/12/02 02:06:00;;;;;;;28.10;9.50;;;;;;;15.62;55.38;100469.91;106829;1259;22534;-77
2023/12/02 02:08:28;;;;;;;32.70;9.60;;;;;;;15.64;55.23;100468.98;106849;1269;22573;-76
2023/12/02 02:10:57;;;;;;;25.10;8.00;;;;;;;15.64;55.05;100472.29;106845;1261;22966;-77
2023/12/02 02:13:25;;;;;;;26.70;8.80;;;;;;;15.64;54.91;100471.06;106816;1260;24225;-77
2023/12/02 02:15:53;;;;;;;45.50;12.70;;;;;;;15.62;54.71;100468.39;106774;1277;22529;-77
2023/12/02 02:18:21;;;;;;;54.70;13.80;;;;;;;15.61;54.67;100467.04;106927;1264;22529;-76
2023/12/02 02:20:50;;;;;;;40.40;12.40;;;;;;;15.60;54.69;100474.41;106727;1277;22533;-76
2023/12/02 02:23:18;;;;;;;34.80;11.30;;;;;;;15.55;54.41;100478.48;106871;1257;25468;-77
2023/12/02 02:25:51;;;;;;;47.00;13.10;;;;;;;15.50;54.29;100468.43;106753;1257;24335;-76
2023/12/02 02:28:23;;;;;;;34.10;10.90;;;;;;;15.46;54.17;100463.54;106824;1254;22621;-77
2023/12/02 02:30:51;;;;;;;;;;;;;;;15.44;54.24;100471.34;106910;1257;25343;-77
2023/12/02 02:33:18;;;;;;;33.80;9.70;;;;;;;15.42;54.38;100469.11;106049;1258;1003563;-77
2023/12/02 02:35:47;;;;;;;31.70;9.30;;;;;;;15.41;54.42;100462.86;106904;1257;22531;-77
2023/12/02 02:38:15;;;;;;;22.60;8.40;;;;;;;15.41;54.49;100462.16;106783;1263;22512;-77
2023/12/02 02:40:42;;;;;;;28.10;9.00;;;;;;;15.41;54.52;100464.97;106838;1267;22605;-77
2023/12/02 02:43:11;;;;;;;30.30;8.90;;;;;;;15.41;54.48;100463.05;106527;1264;23794;-76
2023/12/02 02:45:38;;;;;;;36.00;9.80;;;;;;;15.40;54.43;100467.28;106886;1257;22625;-77
2023/12/02 02:48:07;;;;;;;35.80;10.10;;;;;;;15.39;54.38;100469.26;106896;1270;22532;-77
2023/12/02 02:50:35;;;;;;;26.60;9.40;;;;;;;15.35;54.24;100462.97;106862;1258;22528;-76
2023/12/02 02:53:03;;;;;;;33.20;9.80;;;;;;;15.35;54.19;100464.05;106839;1257;22532;-77
2023/12/02 02:55:30;;;;;;;35.00;9.60;;;;;;;15.33;54.05;100464.29;106808;1257;26500;-77
2023/12/02 02:57:58;;;;;;;21.80;7.90;;;;;;;15.30;53.80;100458.84;106813;1260;22550;-77
2023/12/02 03:00:25;;;;;;;27.90;8.20;;;;;;;15.29;53.66;100454.52;106726;1270;22513;-77
2023/12/02 03:02:53;;;;;;;22.60;8.20;;;;;;;15.27;53.64;100456.87;106707;1257;22537;-76
2023/12/02 03:05:21;;;;;;;24.10;8.90;;;;;;;15.26;53.65;100469.51;106463;1261;25361;-76
2023/12/02 03:07:53;;;;;;;27.50;9.30;;;;;;;15.24;53.66;100479.55;106550;1270;22549;-76
2023/12/02 03:10:21;;;;;;;19.10;6.40;;;;;;;15.22;53.66;100474.23;106571;1257;22543;-76
2023/12/02 03:12:49;;;;;;;15.80;5.90;;;;;;;15.21;53.80;100473.76;106446;1267;25382;-76
2023/12/02 03:15:17;;;;;;;19.00;6.60;;;;;;;15.21;53.76;100477.41;106373;1263;25285;-76
2023/12/02 03:17:45;;;;;;;16.00;5.80;;;;;;;15.21;53.54;100474.27;106575;1260;22532;-76
2023/12/02 03:20:13;;;;;;;18.10;5.70;;;;;;;15.20;53.44;100473.27;106312;1263;22570;-76
2023/12/02 03:22:40;;;;;;;16.80;6.00;;;;;;;15.19;53.59;100476.63;106376;1261;24259;-76
2023/12/02 03:25:08;;;;;;;19.60;6.90;;;;;;;15.19;53.58;100480.66;106518;1257;22530;-76
2023/12/02 03:27:36;;;;;;;18.50;6.60;;;;;;;15.16;53.37;100487.27;106547;1257;22535;-76
2023/12/02 03:30:05;;;;;;;16.00;6.00;;;;;;;15.15;53.34;100495.19;106495;1270;24382;-77
2023/12/02 03:32:32;;;;;;;17.30;6.70;;;;;;;15.12;53.29;100501.23;106821;1259;24267;-76
2023/12/02 03:35:00;;;;;;;17.20;6.90;;;;;;;15.10;53.35;100505.52;106820;1270;23020;-76
2023/12/02 03:37:28;;;;;;;15.20;6.70;;;;;;;15.09;53.21;100507.16;106872;1260;22531;-76
2023/12/02 03:39:55;;;;;;;17.80;7.60;;;;;;;15.07;53.20;100503.21;106812;1260;25369;-76
2023/12/02 03:42:23;;;;;;;17.80;6.90;;;;;;;15.05;53.29;100500.19;106691;1270;24425;-76
2023/12/02 03:44:51;;;;;;;21.00;8.00;;;;;;;15.03;53.16;100501.12;106801;1258;22539;-76
2023/12/02 03:47:18;;;;;;;17.60;6.40;;;;;;;15.01;52.94;100498.06;106469;1261;22634;-76
2023/12/02 03:49:46;;;;;;;16.40;8.80;;;;;;;14.99;52.77;100493.10;106529;1260;24382;-76
2023/12/02 03:52:13;;;;;;;33.30;19.80;;;;;;;14.97;52.65;100491.61;106354;1261;24228;-76
2023/12/02 03:54:41;;;;;;;36.90;22.20;;;;;;;14.95;52.62;100481.23;106545;1256;22540;-77
2023/12/02 03:57:09;;;;;;;26.90;15.90;;;;;;;14.93;52.76;100477.30;106500;1257;24226;-77
2023/12/02 03:59:38;;;;;;;31.00;15.60;;;;;;;14.89;52.63;100471.91;106446;1258;25250;-76
2023/12/02 04:02:07;;;;;;;31.70;15.70;;;;;;;14.84;52.46;100480.15;106773;1271;24207;-75
2023/12/02 04:04:35;;;;;;;26.30;14.60;;;;;;;14.79;52.50;100488.54;106836;1261;22542;-76
2023/12/02 04:07:04;;;;;;;18.70;9.40;;;;;;;14.76;52.68;100487.81;106745;1257;22545;-76
2023/12/02 04:09:32;;;;;;;21.20;10.20;;;;;;;14.75;52.91;100483.69;106821;1270;22564;-76
2023/12/02 04:12:00;;;;;;;15.40;10.00;;;;;;;14.75;53.11;100475.66;106829;1260;22539;-76
2023/12/02 04:14:27;;;;;;;20.60;8.80;;;;;;;14.73;53.05;100478.16;106782;1263;24382;-76
2023/12/02 04:16:55;;;;;;;12.30;6.70;;;;;;;14.60;52.40;100496.52;106847;1260;22545;-76
2023/12/02 04:19:23;;;;;;;11.50;7.00;;;;;;;14.42;52.45;100505.84;106843;1260;22527;-76
2023/12/02 04:21:51;;;;;;;13.00;7.80;;;;;;;14.25;52.29;100497.80;106794;1270;22539;-75
2023/12/02 04:24:18;;;;;;;16.00;9.40;;;;;;;14.06;52.16;100496.48;106677;1260;25257;-75
2023/12/02 04:26:46;;;;;;;13.90;10.00;;;;;;;13.86;52.15;100504.44;106765;1260;23318;-75
2023/12/02 04:29:14;;;;;;;15.00;9.90;;;;;;;13.68;52.45;100504.08;106817;1270;22531;-76
2023/12/02 04:31:42;;;;;;;12.90;9.30;;;;;;;13.57;52.59;100500.34;106117;1261;1003652;-75
2023/12/02 04:34:09;;;;;;;14.10;9.50;;;;;;;13.47;52.68;100494.29;106500;1263;22547;-75
2023/12/02 04:36:37;;;;;;;15.50;9.70;;;;;;;13.34;52.78;100491.12;106724;1260;22533;-75
2023/12/02 04:39:05;;;;;;;12.50;9.60;;;;;;;13.23;52.98;100488.05;106814;1257;22548;-75
2023/12/02 04:41:33;;;;;;;16.20;10.50;;;;;;;13.15;53.39;100482.06;106796;1258;25746;-76
2023/12/02 04:44:01;;;;;;;14.50;9.40;;;;;;;13.14;53.60;100500.05;106831;1254;22643;-75
2023/12/02 04:46:28;;;;;;;16.80;10.10;;;;;;;13.16;53.70;100514.77;106857;1255;25349;-76
2023/12/02 04:48:56;;;;;;;15.80;10.10;;;;;;;13.15;53.60;100509.22;106849;1259;22537;-75
2023/12/02 04:51:24;;;;;;;15.30;10.50;;;;;;;13.15;53.70;100505.41;106813;1255;22575;-74
2023/12/02 04:53:52;;;;;;;12.90;9.90;;;;;;;13.16;53.79;100505.71;106011;1260;1003159;-75
2023/12/02 04:56:20;;;;;;;12.90;9.40;;;;;;;13.16;53.67;100503.65;106791;1274;22533;-74
2023/12/02 04:58:48;;;;;;;14.50;10.10;;;;;;;13.14;53.62;100501.77;106907;1267;22532;-75
2023/12/02 05:01:16;;;;;;;16.20;10.60;;;;;;;13.13;53.67;100506.37;106811;1261;25244;-74
2023/12/02 05:03:43;;;;;;;17.00;11.30;;;;;;;13.12;53.78;100508.32;105947;1254;1003702;-75
2023/12/02 05:06:15;;;;;;;17.10;12.40;;;;;;;13.10;53.81;100500.36;106836;1255;22536;-74
2023/12/02 05:08:44;;;;;;;18.80;12.50;;;;;;;13.09;53.86;100497.23;106068;1257;1002891;-75
2023/12/02 05:11:20;;;;;;;16.00;11.20;;;;;;;13.08;53.84;100495.02;106889;1256;22524;-76
2023/12/02 05:13:47;;;;;;;16.30;11.20;;;;;;;13.05;53.83;100505.21;106872;1259;22540;-74
2023/12/02 05:16:15;;;;;;;16.90;11.80;;;;;;;13.05;53.95;100507.83;106963;1257;23824;-74
2023/12/02 05:18:43;;;;;;;15.80;11.60;;;;;;;13.09;53.92;100512.74;105987;1260;1003613;-75
2023/12/02 05:21:11;;;;;;;16.70;11.70;;;;;;;13.13;53.81;100519.58;106743;1263;22538;-75
2023/12/02 05:23:40;;;;;;;17.00;12.60;;;;;;;13.20;53.72;100529.80;106858;1255;22647;-75
2023/12/02 05:26:08;;;;;;;18.70;12.40;;;;;;;13.23;53.58;100549.90;106870;1270;22709;-75
2023/12/02 05:28:37;;;;;;;15.80;11.90;;;;;;;13.26;53.50;100550.64;106774;1260;22734;-75
2023/12/02 05:31:06;;;;;;;15.40;11.60;;;;;;;13.28;53.38;100544.64;106842;1258;22540;-75
2023/12/02 05:33:34;;;;;;;16.10;12.00;;;;;;;13.32;53.30;100537.02;106874;1259;25499;-75
2023/12/02 05:36:01;;;;;;;16.50;11.70;;;;;;;13.30;53.00;100536.72;106864;1258;22549;-75
2023/12/02 05:38:29;;;;;;;17.10;12.60;;;;;;;13.26;53.03;100539.48;106850;1261;24249;-74
2023/12/02 05:40:57;;;;;;;18.40;12.00;;;;;;;13.25;52.98;100541.11;106796;1259;24226;-74
2023/12/02 05:43:24;;;;;;;15.00;11.30;;;;;;;13.26;53.04;100544.91;106727;1258;22550;-75
2023/12/02 05:45:52;;;;;;;13.80;11.10;;;;;;;13.26;52.97;100537.21;106885;1272;22526;-75
2023/12/02 05:48:22;;;;;;;14.10;11.30;;;;;;;13.24;52.95;100538.00;106779;1260;22548;-75
2023/12/02 05:50:50;;;;;;;14.70;11.20;;;;;;;13.24;52.93;100538.17;106807;1257;22584;-75
2023/12/02 05:53:18;;;;;;;14.50;10.80;;;;;;;13.27;52.98;100530.20;106830;1268;24251;-74
2023/12/02 05:55:46;;;;;;;13.00;10.20;;;;;;;13.31;52.98;100526.41;106873;1254;22659;-75
2023/12/02 05:58:13;;;;;;;16.40;11.10;;;;;;;13.35;52.93;100530.10;106674;1270;25061;-75
2023/12/02 06:00:41;;;;;;;16.30;11.40;;;;;;;13.33;52.60;100535.05;106519;1264;22761;-75
2023/12/02 06:03:08;;;;;;;13.90;10.40;;;;;;;13.26;52.67;100545.43;106762;1257;22539;-75
2023/12/02 06:05:36;;;;;;;12.20;10.00;;;;;;;13.20;52.75;100544.77;106896;1260;22547;-74
2023/12/02 06:08:04;;;;;;;12.70;9.60;;;;;;;13.15;52.84;100537.80;106815;1254;25498;-75
2023/12/02 06:10:32;;;;;;;13.30;10.30;;;;;;;13.08;52.80;100541.34;106696;1258;22540;-74
2023/12/02 06:13:00;;;;;;;11.10;9.90;;;;;;;12.93;52.94;100553.15;106768;1257;25329;-75
2023/12/02 06:15:28;;;;;;;15.20;10.20;;;;;;;12.84;53.42;100553.48;106794;1257;23878;-75
2023/12/02 06:17:57;;;;;;;11.60;9.20;;;;;;;12.82;53.57;100556.13;106854;1258;22533;-75
2023/12/02 06:20:25;;;;;;;12.60;10.70;;;;;;;12.81;53.56;100563.30;106898;1257;22543;-74
2023/12/02 06:22:53;;;;;;;13.70;11.10;;;;;;;12.71;53.48;100567.13;106819;1261;25337;-75
2023/12/02 06:25:20;;;;;;;12.60;11.20;;;;;;;12.62;53.80;100560.14;106798;1261;25419;-74
2023/12/02 06:27:48;;;;;;;14.40;12.40;;;;;;;12.60;53.96;100557.93;106771;1253;25354;-74
2023/12/02 06:30:17;;;;;;;14.80;12.50;;;;;;;12.58;54.07;100557.30;106686;1258;22537;-74
2023/12/02 06:32:44;;;;;;;14.30;12.20;;;;;;;12.58;54.15;100565.32;106753;1255;22544;-74
2023/12/02 06:35:12;;;;;;;14.10;11.90;;;;;;;12.57;54.24;100566.04;106799;1271;22527;-75
2023/12/02 06:37:40;;;;;;;15.60;13.10;;;;;;;12.55;54.25;100565.05;106908;1258;22569;-74
2023/12/02 06:40:08;;;;;;;14.20;12.00;;;;;;;12.48;54.61;100562.70;106931;1257;22533;-74
2023/12/02 06:42:36;;;;;;;15.80;11.00;;;;;;;12.46;54.87;100556.32;106676;1262;24232;-73
2023/12/02 06:45:05;;;;;;;15.70;13.20;;;;;;;12.50;54.95;100552.54;106951;1258;25340;-74
2023/12/02 06:47:33;;;;;;;14.50;12.30;;;;;;;12.54;55.01;100555.54;106707;1264;22531;-75
2023/12/02 06:50:01;;;;;;;13.90;11.80;;;;;;;12.58;55.01;100560.28;106775;1254;22547;-74
2023/12/02 06:52:29;;;;;;;13.50;12.10;;;;;;;12.64;55.11;100556.94;106758;1255;22525;-74
2023/12/02 06:54:57;;;;;;;14.40;12.30;;;;;;;12.71;55.04;100558.43;106357;1263;22541;-74
2023/12/02 06:57:28;;;;;;;14.00;12.40;;;;;;;12.77;54.83;100557.02;106663;1255;22533;-74
2023/12/02 06:59:56;;;;;;;14.40;12.40;;;;;;;12.82;54.79;100555.98;106809;1255;23872;-73
2023/12/02 07:02:23;;;;;;;15.00;13.30;;;;;;;12.88;54.78;100561.87;106060;1258;1003164;-74
2023/12/02 07:04:52;;;;;;;13.60;11.50;;;;;;;12.99;54.54;100550.66;106905;1259;26530;-74
2023/12/02 07:07:20;;;;;;;13.60;12.20;;;;;;;13.12;54.23;100545.73;106816;1270;22525;-74
2023/12/02 07:09:47;;;;;;;14.50;12.30;;;;;;;13.17;53.99;100542.09;106800;1257;22534;-74
2023/12/02 07:12:15;;;;;;;20.20;13.30;;;;;;;13.16;53.75;100539.19;106737;1257;24237;-73
2023/12/02 07:14:43;;;;;;;15.10;12.20;;;;;;;13.14;53.86;100546.02;106749;1258;25391;-74
2023/12/02 07:17:11;;;;;;;14.10;12.70;;;;;;;13.16;53.77;100536.02;106762;1255;22667;-73
2023/12/02 07:19:39;;;;;;;15.70;12.60;;;;;;;13.18;53.71;100537.17;106376;1262;24225;-73
2023/12/02 07:22:06;;;;;;;14.20;12.00;;;;;;;13.20;53.48;100541.80;106624;1261;25332;-74
2023/12/02 07:24:34;;;;;;;14.60;12.60;;;;;;;13.21;53.42;100538.63;106734;1257;22539;-73
2023/12/02 07:27:03;;;;;;;14.70;12.00;;;;;;;13.26;53.49;100528.52;106746;1270;23216;-73
2023/12/02 07:29:30;;;;;;;16.10;13.60;;;;;;;13.31;53.36;100519.61;106449;1258;22785;-73
2023/12/02 07:32:01;;;;;;;14.20;12.60;;;;;;;13.36;53.34;100516.45;106666;1258;22553;-73
2023/12/02 07:34:29;;;;;;;14.70;12.40;;;;;;;13.39;53.22;100510.44;106822;1258;25241;-73
2023/12/02 07:36:56;;;;;;;15.90;12.50;;;;;;;13.34;53.42;100510.96;106071;1260;1002963;-74
2023/12/02 07:39:24;;;;;;;17.20;13.50;;;;;;;13.30;53.59;100508.17;106795;1257;25351;-74
2023/12/02 07:41:51;;;;;;;18.00;13.50;;;;;;;13.36;53.74;100510.73;106859;1261;22533;-74
2023/12/02 07:44:19;;;;;;;36.90;21.30;;;;;;;13.39;54.09;100510.27;106810;1263;22537;-73
2023/12/02 07:46:47;;;;;;;64.00;30.90;;;;;;;13.55;54.14;100502.33;106785;1255;22527;-73
2023/12/02 07:49:14;;;;;;;55.60;26.70;;;;;;;13.63;54.41;100499.05;106832;1260;25363;-74
2023/12/02 07:51:42;;;;;;;40.50;20.50;;;;;;;13.71;54.82;100490.53;106948;1258;22533;-74
2023/12/02 07:54:10;;;;;;;35.50;17.30;;;;;;;13.89;55.11;100483.89;106803;1260;24246;-74
2023/12/02 07:56:39;;;;;;;32.20;15.70;;;;;;;14.07;55.68;100484.38;106806;1260;22629;-73
2023/12/02 07:59:06;;;;;;;28.20;16.20;;;;;;;14.29;56.01;100493.81;106634;1262;25355;-73
2023/12/02 08:01:34;;;;;;;27.50;14.80;;;;;;;14.43;56.35;100503.36;106788;1258;22529;-74
2023/12/02 08:04:02;;;;;;;24.10;14.10;;;;;;;14.48;56.84;100507.34;106725;1260;25321;-74
2023/12/02 08:06:29;;;;;;;26.20;13.70;;;;;;;14.66;56.95;100509.00;106864;1257;25300;-73
2023/12/02 08:08:57;;;;;;;26.20;14.40;;;;;;;14.85;56.86;100515.90;106721;1258;25352;-75
2023/12/02 08:11:25;;;;;;;25.70;13.20;;;;;;;14.95;56.98;100520.54;106814;1258;22525;-74
2023/12/02 08:13:54;;;;;;;19.20;12.30;;;;;;;15.06;57.02;100531.73;106663;1260;22523;-74
2023/12/02 08:16:22;;;;;;;19.70;11.60;;;;;;;15.15;56.98;100533.77;106828;1260;24713;-74
2023/12/02 08:18:50;;;;;;;19.70;11.80;;;;;;;15.25;57.20;100534.04;106694;1273;22545;-73
2023/12/02 08:21:17;;;;;;;19.40;10.00;;;;;;;15.35;57.32;100539.15;106757;1254;25352;-74
2023/12/02 08:23:45;;;;;;;12.80;7.90;;;;;;;15.48;57.56;100536.34;106633;1262;22545;-74
2023/12/02 08:26:13;;;;;;;15.60;7.60;;;;;;;15.63;57.72;100538.11;106543;1257;24250;-75
2023/12/02 08:28:40;;;;;;;14.40;7.90;;;;;;;15.78;57.95;100541.60;106631;1260;25378;-74
2023/12/02 08:31:08;;;;;;;13.10;6.60;;;;;;;15.94;58.16;100540.32;106550;1258;25358;-74
2023/12/02 08:33:35;;;;;;;18.30;10.70;;;;;;;16.09;57.91;100534.84;106786;1260;25250;-74
2023/12/02 08:36:04;;;;;;;20.90;12.80;;;;;;;16.17;56.49;100527.48;106827;1257;22529;-74
2023/12/02 08:38:32;;;;;;;18.10;13.00;;;;;;;16.18;55.48;100529.70;106796;1270;22528;-74
2023/12/02 08:41:03;;;;;;;15.80;12.90;;;;;;;16.22;54.86;100528.45;106362;1262;21740;-73
2023/12/02 08:43:31;;;;;;;15.30;12.20;;;;;;;16.23;54.01;100525.77;106561;1264;22525;-73
2023/12/02 08:45:59;;;;;;;17.50;12.90;;;;;;;16.14;53.15;100520.44;106719;1261;23916;-73
2023/12/02 08:48:26;;;;;;;15.60;12.70;;;;;;;16.07;52.92;100516.05;106810;1255;22535;-74
2023/12/02 08:50:54;;;;;;;16.30;11.70;;;;;;;16.00;52.81;100511.86;106537;1264;25425;-74
2023/12/02 08:53:22;;;;;;;16.70;11.90;;;;;;;15.97;52.94;100508.30;105252;1270;1003041;-74
2023/12/02 08:55:49;;;;;;;15.60;12.90;;;;;;;16.00;53.08;100511.33;106828;1257;25369;-73
2023/12/02 08:58:17;;;;;;;15.40;11.80;;;;;;;16.05;53.12;100517.55;106549;1258;23910;-74
2023/12/02 09:00:44;;;;;;;16.20;12.90;;;;;;;16.12;53.19;100517.91;106507;1258;22523;-74
2023/12/02 09:03:16;;;;;;;17.70;12.50;;;;;;;16.18;53.15;100501.85;106491;1269;22601;-73
2023/12/02 09:05:44;;;;;;;18.20;11.20;;;;;;;16.27;53.21;100496.52;106453;1260;23638;-74
2023/12/02 09:08:11;;;;;;;21.30;9.50;;;;;;;16.38;53.62;100499.16;106730;1255;25284;-75
2023/12/02 09:10:39;;;;;;;22.20;10.30;;;;;;;16.50;54.36;100499.95;106862;1255;22536;-75
2023/12/02 09:13:42;;;;;;;25.20;11.30;;;;;;;16.65;54.75;100497.48;107012;1260;25361;-76
2023/12/02 09:16:10;;;;;;;23.70;11.10;;;;;;;16.81;54.88;100490.34;106892;1255;22661;-76
2023/12/02 09:18:38;;;;;;;18.90;8.20;;;;;;;16.93;55.01;100487.58;107114;1258;25345;-73
2023/12/02 09:21:21;;;;;;;21.90;8.00;;;;;;;17.05;55.18;100488.19;106928;1259;22526;-77
2023/12/02 09:23:52;;;;;;;15.70;7.60;;;;;;;17.17;55.16;100485.97;106952;1270;24292;-73
2023/12/02 09:26:24;;;;;;;16.30;8.20;;;;;;;17.33;54.89;100483.19;106862;1261;22528;-77
2023/12/02 09:28:52;;;;;;;17.90;7.10;;;;;;;17.34;54.88;100487.50;106961;1256;24197;-77
2023/12/02 09:31:20;;;;;;;18.80;6.90;;;;;;;17.39;54.77;100486.02;106808;1259;24228;-75
2023/12/02 09:33:55;;;;;;;11.10;6.20;;;;;;;17.44;54.69;100482.77;106990;1259;22546;-78
2023/12/02 09:36:34;;;;;;;19.20;8.20;;;;;;;17.47;54.62;100480.30;107185;1260;23889;-79
2023/12/02 09:39:15;;;;;;;17.40;7.90;;;;;;;17.50;54.58;100486.48;106990;1262;24501;-76
2023/12/02 09:41:49;;;;;;;24.60;9.70;;;;;;;17.53;54.58;100486.81;107015;1271;22532;-75
2023/12/02 09:44:20;;;;;;;22.10;7.30;;;;;;;17.56;54.41;100479.14;106944;1258;24195;-76
2023/12/02 09:47:10;;;;;;;20.30;8.20;;;;;;;17.56;54.45;100471.73;106840;1258;22541;-76
2023/12/02 09:49:56;;;;;;;13.30;6.50;;;;;;;17.57;54.34;100468.39;106907;1263;24280;-72
2023/12/02 09:53:00;;;;;;;7.20;5.40;;;;;;;17.56;54.03;100463.48;106901;1270;22541;-75
2023/12/02 09:55:31;;;;;;;11.00;5.00;;;;;;;17.56;53.99;100466.16;106831;1260;24345;-75
2023/12/02 09:58:06;;;;;;;11.60;5.50;;;;;;;17.54;54.07;100461.89;106921;1258;24241;-74
2023/12/02 10:00:39;;;;;;;13.70;7.00;;;;;;;17.51;54.00;100463.06;106839;1255;22533;-65
2023/12/02 10:03:19;;;;;;;10.30;5.70;;;;;;;17.47;53.88;100458.54;107028;1258;22530;-68
2023/12/02 10:05:57;;;;;;;7.60;5.10;;;;;;;17.41;54.08;100446.44;106567;1259;22601;-66
2023/12/02 10:08:29;;;;;;;9.10;5.30;;;;;;;17.36;54.28;100430.57;106866;1258;24276;-68
2023/12/02 10:11:02;;;;;;;9.70;5.30;;;;;;;17.34;54.44;100429.84;106768;1255;368236;-68
2023/12/02 10:13:50;;;;;;;13.80;6.00;;;;;;;17.33;54.57;100437.36;107071;1270;22537;-67
2023/12/02 10:16:20;;;;;;;12.60;5.60;;;;;;;17.40;54.49;100436.51;107062;1259;25361;-64
2023/12/02 10:18:52;;;;;;;10.20;5.40;;;;;;;17.35;54.66;100435.00;106879;1270;22552;-65
2023/12/02 10:21:20;;;;;;;10.70;6.00;;;;;;;17.32;54.93;100430.63;106933;1270;22534;-64
2023/12/02 10:23:58;;;;;;;8.10;4.80;;;;;;;17.32;55.01;100426.56;106871;1255;24365;-65
2023/12/02 10:26:31;;;;;;;17.00;6.50;;;;;;;17.34;55.10;100416.47;106844;1256;25250;-66
2023/12/02 10:29:05;;;;;;;18.50;6.40;;;;;;;17.36;55.17;100417.92;106656;1261;23244;-65
2023/12/02 10:31:35;;;;;;;16.50;6.80;;;;;;;17.40;55.32;100423.36;106765;1258;25268;-66
2023/12/02 10:34:31;;;;;;;14.20;5.80;;;;;;;17.43;55.31;100413.17;106915;1258;22550;-66
2023/12/02 10:37:00;;;;;;;12.80;6.20;;;;;;;17.46;55.20;100413.72;106666;1275;22591;-65
2023/12/02 10:39:46;;;;;;;13.80;6.60;;;;;;;17.37;55.65;100420.19;106521;1259;22556;-65
2023/12/02 10:42:26;;;;;;;14.10;5.60;;;;;;;17.28;56.13;100419.29;106581;1264;22571;-64
2023/12/02 10:45:04;;;;;;;16.00;5.90;;;;;;;17.32;56.23;100412.76;106710;1259;22539;-64
2023/12/02 10:47:32;;;;;;;16.00;6.30;;;;;;;17.52;55.79;100410.39;106559;1262;22648;-66
2023/12/02 10:50:00;;;;;;;14.50;6.40;;;;;;;17.63;55.70;100402.76;106867;1273;22539;-65
2023/12/02 10:52:28;;;;;;;12.80;5.50;;;;;;;17.70;55.61;100404.27;106648;1263;22583;-63
2023/12/02 10:54:59;;;;;;;10.10;5.20;;;;;;;17.57;56.13;100408.89;106359;1262;22536;-65
2023/12/02 10:57:27;;;;;;;11.30;5.80;;;;;;;17.76;55.83;100404.64;106581;1275;25256;-65
2023/12/02 11:00:12;;;;;;;16.70;6.50;;;;;;;17.81;55.75;100403.88;106319;1265;26589;-64
2023/12/02 11:02:49;;;;;;;14.20;5.80;;;;;;;17.85;55.79;100397.99;106426;1263;24247;-63
2023/12/02 11:05:22;;;;;;;20.80;6.30;;;;;;;17.88;55.88;100399.25;106404;1265;22541;-65
2023/12/02 11:07:58;;;;;;;17.70;5.40;;;;;;;18.02;55.65;100390.36;106592;1265;25348;-64
2023/12/02 11:10:45;;;;;;;17.30;5.80;;;;;;;18.03;55.78;100384.35;106394;1267;25354;-64
2023/12/02 11:13:19;;;;;;;12.40;5.50;;;;;;;18.07;55.73;100367.79;106357;1262;22550;-64